sensor_id;sensor_type;location;lat;lon;timestamp;P1;durP1;ratioP1;P2;durP2;ratioP2
19030;SDS011;9648;51.130;13.978;2023-05-27T00:01:05;13.33;;;4.03;;
19030;SDS011;9648;51.130;13.978;2023-05-27T00:03:32;17.38;;;5.07;;
19030;SDS011;9648;51.130;13.978;2023-05-27T00:06:00;17.65;;;4.80;;
19030;SDS011;9648;51.130;13.978;2023-05-27T00:08:27;19.60;;;4.60;;
19030;SDS011;9648;51.130;13.978;2023-05-27T00:10:54;18.60;;;4.55;;
19030;SDS011;9648;51.130;13.978;2023-05-27T00:13:20;17.38;;;4.68;;
19030;SDS011;9648;51.130;13.978;2023-05-27T00:15:47;15.70;;;3.92;;
19030;SDS011;9648;51.130;13.978;2023-05-27T00:18:17;15.80;;;4.70;;
19030;SDS011;9648;51.130;13.978;2023-05-27T00:20:44;16.65;;;4.57;;
19030;SDS011;9648;51.130;13.978;2023-05-27T00:23:12;14.98;;;4.20;;
19030;SDS011;9648;51.130;13.978;2023-05-27T00:25:38;11.95;;;3.88;;
19030;SDS011;9648;51.130;13.978;2023-05-27T00:28:05;21.15;;;4.63;;
19030;SDS011;9648;51.130;13.978;2023-05-27T00:30:32;17.30;;;4.40;;
19030;SDS011;9648;51.130;13.978;2023-05-27T00:32:59;13.00;;;3.88;;
19030;SDS011;9648;51.130;13.978;2023-05-27T00:35:25;19.85;;;4.95;;
19030;SDS011;9648;51.130;13.978;2023-05-27T00:37:52;12.52;;;3.83;;
19030;SDS011;9648;51.130;13.978;2023-05-27T00:40:21;19.17;;;4.45;;
19030;SDS011;9648;51.130;13.978;2023-05-27T00:42:49;16.48;;;4.60;;
19030;SDS011;9648;51.130;13.978;2023-05-27T00:45:16;12.27;;;3.57;;
19030;SDS011;9648;51.130;13.978;2023-05-27T00:47:42;12.70;;;3.80;;
19030;SDS011;9648;51.130;13.978;2023-05-27T00:50:10;11.82;;;3.80;;
19030;SDS011;9648;51.130;13.978;2023-05-27T00:52:36;13.65;;;3.70;;
19030;SDS011;9648;51.130;13.978;2023-05-27T00:55:04;14.52;;;3.75;;
19030;SDS011;9648;51.130;13.978;2023-05-27T00:57:33;12.60;;;4.13;;
19030;SDS011;9648;51.130;13.978;2023-05-27T01:00:00;13.75;;;4.15;;
19030;SDS011;9648;51.130;13.978;2023-05-27T01:02:29;15.40;;;4.40;;
19030;SDS011;9648;51.130;13.978;2023-05-27T01:04:59;17.05;;;4.38;;
19030;SDS011;9648;51.130;13.978;2023-05-27T01:07:30;14.52;;;4.40;;
19030;SDS011;9648;51.130;13.978;2023-05-27T01:10:05;16.73;;;4.35;;
19030;SDS011;9648;51.130;13.978;2023-05-27T01:12:40;9.32;;;3.90;;
19030;SDS011;9648;51.130;13.978;2023-05-27T01:15:10;14.32;;;4.18;;
19030;SDS011;9648;51.130;13.978;2023-05-27T01:17:38;15.52;;;4.53;;
19030;SDS011;9648;51.130;13.978;2023-05-27T01:20:10;13.90;;;3.88;;
19030;SDS011;9648;51.130;13.978;2023-05-27T01:22:39;14.98;;;4.30;;
19030;SDS011;9648;51.130;13.978;2023-05-27T01:25:07;13.57;;;4.05;;
19030;SDS011;9648;51.130;13.978;2023-05-27T01:27:35;13.52;;;4.07;;
19030;SDS011;9648;51.130;13.978;2023-05-27T01:30:05;12.02;;;3.90;;
19030;SDS011;9648;51.130;13.978;2023-05-27T01:32:34;12.98;;;3.83;;
19030;SDS011;9648;51.130;13.978;2023-05-27T01:35:09;15.38;;;4.05;;
19030;SDS011;9648;51.130;13.978;2023-05-27T01:37:45;12.67;;;4.20;;
19030;SDS011;9648;51.130;13.978;2023-05-27T01:40:13;13.23;;;4.15;;
19030;SDS011;9648;51.130;13.978;2023-05-27T01:42:41;14.73;;;4.18;;
19030;SDS011;9648;51.130;13.978;2023-05-27T01:45:09;12.77;;;4.38;;
19030;SDS011;9648;51.130;13.978;2023-05-27T01:47:37;13.30;;;3.97;;
19030;SDS011;9648;51.130;13.978;2023-05-27T01:50:04;17.23;;;4.97;;
19030;SDS011;9648;51.130;13.978;2023-05-27T01:52:32;13.60;;;3.97;;
19030;SDS011;9648;51.130;13.978;2023-05-27T01:55:00;15.43;;;4.38;;
19030;SDS011;9648;51.130;13.978;2023-05-27T01:57:29;15.82;;;4.30;;
19030;SDS011;9648;51.130;13.978;2023-05-27T01:59:55;15.27;;;4.38;;
19030;SDS011;9648;51.130;13.978;2023-05-27T02:02:25;12.95;;;4.18;;
19030;SDS011;9648;51.130;13.978;2023-05-27T02:04:52;16.15;;;4.28;;
19030;SDS011;9648;51.130;13.978;2023-05-27T02:07:18;13.73;;;4.50;;
19030;SDS011;9648;51.130;13.978;2023-05-27T02:09:49;12.60;;;4.15;;
19030;SDS011;9648;51.130;13.978;2023-05-27T02:12:17;16.52;;;4.70;;
19030;SDS011;9648;51.130;13.978;2023-05-27T02:14:44;14.73;;;4.50;;
19030;SDS011;9648;51.130;13.978;2023-05-27T02:17:10;13.77;;;4.00;;
19030;SDS011;9648;51.130;13.978;2023-05-27T02:19:39;12.82;;;4.03;;
19030;SDS011;9648;51.130;13.978;2023-05-27T02:22:06;14.48;;;4.40;;
19030;SDS011;9648;51.130;13.978;2023-05-27T02:24:33;16.85;;;4.47;;
19030;SDS011;9648;51.130;13.978;2023-05-27T02:27:00;21.33;;;5.35;;
19030;SDS011;9648;51.130;13.978;2023-05-27T02:29:28;13.23;;;4.13;;
19030;SDS011;9648;51.130;13.978;2023-05-27T02:31:55;17.48;;;4.57;;
19030;SDS011;9648;51.130;13.978;2023-05-27T02:34:22;13.45;;;4.70;;
19030;SDS011;9648;51.130;13.978;2023-05-27T02:36:52;12.82;;;4.43;;
19030;SDS011;9648;51.130;13.978;2023-05-27T02:39:22;13.30;;;4.18;;
19030;SDS011;9648;51.130;13.978;2023-05-27T02:41:48;14.13;;;4.45;;
19030;SDS011;9648;51.130;13.978;2023-05-27T02:44:15;15.63;;;4.47;;
19030;SDS011;9648;51.130;13.978;2023-05-27T02:46:43;13.50;;;4.32;;
19030;SDS011;9648;51.130;13.978;2023-05-27T02:49:10;12.55;;;4.10;;
19030;SDS011;9648;51.130;13.978;2023-05-27T02:51:37;13.00;;;4.13;;
19030;SDS011;9648;51.130;13.978;2023-05-27T02:54:04;11.05;;;4.13;;
19030;SDS011;9648;51.130;13.978;2023-05-27T02:56:31;12.90;;;4.38;;
19030;SDS011;9648;51.130;13.978;2023-05-27T02:59:01;10.30;;;4.10;;
19030;SDS011;9648;51.130;13.978;2023-05-27T03:01:30;15.52;;;4.10;;
19030;SDS011;9648;51.130;13.978;2023-05-27T03:03:58;17.70;;;4.68;;
19030;SDS011;9648;51.130;13.978;2023-05-27T03:06:25;17.83;;;4.75;;
19030;SDS011;9648;51.130;13.978;2023-05-27T03:08:52;16.13;;;4.63;;
19030;SDS011;9648;51.130;13.978;2023-05-27T03:11:18;14.25;;;4.40;;
19030;SDS011;9648;51.130;13.978;2023-05-27T03:13:46;15.10;;;4.43;;
19030;SDS011;9648;51.130;13.978;2023-05-27T03:16:12;10.77;;;4.28;;
19030;SDS011;9648;51.130;13.978;2023-05-27T03:18:39;13.68;;;4.13;;
19030;SDS011;9648;51.130;13.978;2023-05-27T03:21:10;9.07;;;3.88;;
19030;SDS011;9648;51.130;13.978;2023-05-27T03:23:37;15.13;;;4.35;;
19030;SDS011;9648;51.130;13.978;2023-05-27T03:26:04;13.02;;;4.45;;
19030;SDS011;9648;51.130;13.978;2023-05-27T03:28:31;15.75;;;4.88;;
19030;SDS011;9648;51.130;13.978;2023-05-27T03:30:58;15.85;;;4.85;;
19030;SDS011;9648;51.130;13.978;2023-05-27T03:33:24;13.07;;;4.70;;
19030;SDS011;9648;51.130;13.978;2023-05-27T03:35:51;12.80;;;5.05;;
19030;SDS011;9648;51.130;13.978;2023-05-27T03:38:19;12.60;;;4.85;;
19030;SDS011;9648;51.130;13.978;2023-05-27T03:40:46;16.05;;;5.43;;
19030;SDS011;9648;51.130;13.978;2023-05-27T03:43:16;14.05;;;4.45;;
19030;SDS011;9648;51.130;13.978;2023-05-27T03:45:42;14.80;;;4.68;;
19030;SDS011;9648;51.130;13.978;2023-05-27T03:48:09;14.15;;;4.57;;
19030;SDS011;9648;51.130;13.978;2023-05-27T03:50:36;17.63;;;4.67;;
19030;SDS011;9648;51.130;13.978;2023-05-27T03:53:03;11.90;;;4.30;;
19030;SDS011;9648;51.130;13.978;2023-05-27T03:55:31;12.10;;;4.30;;
19030;SDS011;9648;51.130;13.978;2023-05-27T03:57:57;14.73;;;4.57;;
19030;SDS011;9648;51.130;13.978;2023-05-27T04:00:24;12.25;;;4.40;;
19030;SDS011;9648;51.130;13.978;2023-05-27T04:02:51;10.68;;;4.20;;
19030;SDS011;9648;51.130;13.978;2023-05-27T04:05:18;10.65;;;4.35;;
19030;SDS011;9648;51.130;13.978;2023-05-27T04:07:45;13.73;;;4.22;;
19030;SDS011;9648;51.130;13.978;2023-05-27T04:10:11;13.47;;;4.33;;
19030;SDS011;9648;51.130;13.978;2023-05-27T04:12:40;15.02;;;4.68;;
19030;SDS011;9648;51.130;13.978;2023-05-27T04:15:07;13.23;;;4.37;;
19030;SDS011;9648;51.130;13.978;2023-05-27T04:17:34;11.55;;;4.40;;
19030;SDS011;9648;51.130;13.978;2023-05-27T04:20:01;13.75;;;4.75;;
19030;SDS011;9648;51.130;13.978;2023-05-27T04:22:39;13.98;;;4.70;;
19030;SDS011;9648;51.130;13.978;2023-05-27T04:25:06;12.68;;;4.40;;
19030;SDS011;9648;51.130;13.978;2023-05-27T04:27:33;13.27;;;4.45;;
19030;SDS011;9648;51.130;13.978;2023-05-27T04:30:01;12.70;;;4.60;;
19030;SDS011;9648;51.130;13.978;2023-05-27T04:32:28;10.95;;;4.75;;
19030;SDS011;9648;51.130;13.978;2023-05-27T04:34:57;9.88;;;4.47;;
19030;SDS011;9648;51.130;13.978;2023-05-27T04:37:24;12.40;;;4.40;;
19030;SDS011;9648;51.130;13.978;2023-05-27T04:39:53;9.52;;;4.22;;
19030;SDS011;9648;51.130;13.978;2023-05-27T04:42:22;17.20;;;5.25;;
19030;SDS011;9648;51.130;13.978;2023-05-27T04:44:49;13.30;;;4.80;;
19030;SDS011;9648;51.130;13.978;2023-05-27T04:47:18;12.30;;;4.70;;
19030;SDS011;9648;51.130;13.978;2023-05-27T04:49:46;9.45;;;3.88;;
19030;SDS011;9648;51.130;13.978;2023-05-27T04:52:13;12.32;;;4.32;;
19030;SDS011;9648;51.130;13.978;2023-05-27T04:54:39;10.40;;;3.78;;
19030;SDS011;9648;51.130;13.978;2023-05-27T04:57:06;11.52;;;4.63;;
19030;SDS011;9648;51.130;13.978;2023-05-27T04:59:33;10.45;;;4.28;;
19030;SDS011;9648;51.130;13.978;2023-05-27T05:02:25;7.68;;;3.58;;
19030;SDS011;9648;51.130;13.978;2023-05-27T05:05:01;7.93;;;3.40;;
19030;SDS011;9648;51.130;13.978;2023-05-27T05:07:29;9.20;;;3.65;;
19030;SDS011;9648;51.130;13.978;2023-05-27T05:09:56;10.50;;;3.97;;
19030;SDS011;9648;51.130;13.978;2023-05-27T05:12:22;9.55;;;3.70;;
19030;SDS011;9648;51.130;13.978;2023-05-27T05:14:50;9.73;;;4.22;;
19030;SDS011;9648;51.130;13.978;2023-05-27T05:17:17;9.02;;;4.15;;
19030;SDS011;9648;51.130;13.978;2023-05-27T05:19:46;12.48;;;4.63;;
19030;SDS011;9648;51.130;13.978;2023-05-27T05:22:13;12.15;;;4.25;;
19030;SDS011;9648;51.130;13.978;2023-05-27T05:24:39;11.63;;;4.43;;
19030;SDS011;9648;51.130;13.978;2023-05-27T05:27:06;14.05;;;4.50;;
19030;SDS011;9648;51.130;13.978;2023-05-27T05:29:33;11.07;;;4.13;;
19030;SDS011;9648;51.130;13.978;2023-05-27T05:31:59;10.65;;;4.45;;
19030;SDS011;9648;51.130;13.978;2023-05-27T05:34:29;9.67;;;4.30;;
19030;SDS011;9648;51.130;13.978;2023-05-27T05:36:57;11.30;;;4.13;;
19030;SDS011;9648;51.130;13.978;2023-05-27T05:39:24;13.10;;;4.40;;
19030;SDS011;9648;51.130;13.978;2023-05-27T05:41:51;12.60;;;4.00;;
19030;SDS011;9648;51.130;13.978;2023-05-27T05:44:17;10.65;;;3.97;;
19030;SDS011;9648;51.130;13.978;2023-05-27T05:46:47;13.95;;;5.10;;
19030;SDS011;9648;51.130;13.978;2023-05-27T05:49:14;9.40;;;3.95;;
19030;SDS011;9648;51.130;13.978;2023-05-27T05:51:41;10.48;;;4.03;;
19030;SDS011;9648;51.130;13.978;2023-05-27T05:54:09;15.10;;;3.90;;
19030;SDS011;9648;51.130;13.978;2023-05-27T05:56:39;11.18;;;3.42;;
19030;SDS011;9648;51.130;13.978;2023-05-27T05:59:05;12.77;;;4.17;;
19030;SDS011;9648;51.130;13.978;2023-05-27T06:01:32;15.82;;;3.80;;
19030;SDS011;9648;51.130;13.978;2023-05-27T06:03:59;17.02;;;4.20;;
19030;SDS011;9648;51.130;13.978;2023-05-27T06:06:32;13.30;;;3.97;;
19030;SDS011;9648;51.130;13.978;2023-05-27T06:08:58;18.65;;;4.05;;
19030;SDS011;9648;51.130;13.978;2023-05-27T06:11:29;17.88;;;4.03;;
19030;SDS011;9648;51.130;13.978;2023-05-27T06:13:56;14.75;;;3.53;;
19030;SDS011;9648;51.130;13.978;2023-05-27T06:16:23;10.57;;;3.63;;
19030;SDS011;9648;51.130;13.978;2023-05-27T06:18:50;13.05;;;3.70;;
19030;SDS011;9648;51.130;13.978;2023-05-27T06:21:17;16.50;;;3.97;;
19030;SDS011;9648;51.130;13.978;2023-05-27T06:23:44;15.23;;;4.35;;
19030;SDS011;9648;51.130;13.978;2023-05-27T06:26:10;11.25;;;3.58;;
19030;SDS011;9648;51.130;13.978;2023-05-27T06:28:38;14.93;;;4.03;;
19030;SDS011;9648;51.130;13.978;2023-05-27T06:31:05;18.70;;;4.67;;
19030;SDS011;9648;51.130;13.978;2023-05-27T06:33:32;8.52;;;3.00;;
19030;SDS011;9648;51.130;13.978;2023-05-27T06:35:59;14.45;;;3.88;;
19030;SDS011;9648;51.130;13.978;2023-05-27T06:38:26;16.08;;;4.28;;
19030;SDS011;9648;51.130;13.978;2023-05-27T06:40:53;12.07;;;3.40;;
19030;SDS011;9648;51.130;13.978;2023-05-27T06:43:19;16.38;;;3.92;;
19030;SDS011;9648;51.130;13.978;2023-05-27T06:45:51;17.65;;;4.10;;
19030;SDS011;9648;51.130;13.978;2023-05-27T06:48:21;11.38;;;3.20;;
19030;SDS011;9648;51.130;13.978;2023-05-27T06:50:47;15.32;;;3.70;;
19030;SDS011;9648;51.130;13.978;2023-05-27T06:53:17;13.82;;;3.60;;
19030;SDS011;9648;51.130;13.978;2023-05-27T06:55:44;17.58;;;3.60;;
19030;SDS011;9648;51.130;13.978;2023-05-27T06:58:10;14.27;;;3.57;;
19030;SDS011;9648;51.130;13.978;2023-05-27T07:00:37;10.73;;;3.13;;
19030;SDS011;9648;51.130;13.978;2023-05-27T07:03:05;12.17;;;3.40;;
19030;SDS011;9648;51.130;13.978;2023-05-27T07:05:32;14.07;;;3.30;;
19030;SDS011;9648;51.130;13.978;2023-05-27T07:07:58;12.95;;;3.45;;
19030;SDS011;9648;51.130;13.978;2023-05-27T07:10:25;13.90;;;3.53;;
19030;SDS011;9648;51.130;13.978;2023-05-27T07:12:52;16.67;;;3.60;;
19030;SDS011;9648;51.130;13.978;2023-05-27T07:15:18;15.33;;;3.50;;
19030;SDS011;9648;51.130;13.978;2023-05-27T07:17:45;13.13;;;3.10;;
19030;SDS011;9648;51.130;13.978;2023-05-27T07:20:13;11.65;;;3.30;;
19030;SDS011;9648;51.130;13.978;2023-05-27T07:22:40;11.88;;;3.13;;
19030;SDS011;9648;51.130;13.978;2023-05-27T07:25:07;11.55;;;2.75;;
19030;SDS011;9648;51.130;13.978;2023-05-27T07:27:34;12.02;;;2.80;;
19030;SDS011;9648;51.130;13.978;2023-05-27T07:30:01;14.73;;;3.40;;
19030;SDS011;9648;51.130;13.978;2023-05-27T07:32:28;13.43;;;3.47;;
19030;SDS011;9648;51.130;13.978;2023-05-27T07:34:55;9.20;;;2.95;;
19030;SDS011;9648;51.130;13.978;2023-05-27T07:37:27;15.80;;;3.42;;
19030;SDS011;9648;51.130;13.978;2023-05-27T07:39:55;11.00;;;3.10;;
19030;SDS011;9648;51.130;13.978;2023-05-27T07:42:24;11.82;;;3.13;;
19030;SDS011;9648;51.130;13.978;2023-05-27T07:44:51;12.10;;;3.30;;
19030;SDS011;9648;51.130;13.978;2023-05-27T07:47:19;10.98;;;3.10;;
19030;SDS011;9648;51.130;13.978;2023-05-27T07:49:50;11.87;;;3.20;;
19030;SDS011;9648;51.130;13.978;2023-05-27T07:52:16;12.73;;;3.20;;
19030;SDS011;9648;51.130;13.978;2023-05-27T07:54:48;14.30;;;3.40;;
19030;SDS011;9648;51.130;13.978;2023-05-27T07:57:14;13.10;;;3.20;;
19030;SDS011;9648;51.130;13.978;2023-05-27T07:59:44;12.15;;;3.22;;
19030;SDS011;9648;51.130;13.978;2023-05-27T08:02:14;11.65;;;3.17;;
19030;SDS011;9648;51.130;13.978;2023-05-27T08:04:41;13.02;;;3.22;;
19030;SDS011;9648;51.130;13.978;2023-05-27T08:07:08;11.20;;;2.97;;
19030;SDS011;9648;51.130;13.978;2023-05-27T08:09:35;10.63;;;3.03;;
19030;SDS011;9648;51.130;13.978;2023-05-27T08:12:03;14.13;;;3.20;;
19030;SDS011;9648;51.130;13.978;2023-05-27T08:14:31;13.55;;;3.70;;
19030;SDS011;9648;51.130;13.978;2023-05-27T08:16:58;10.73;;;3.22;;
19030;SDS011;9648;51.130;13.978;2023-05-27T08:19:24;11.02;;;3.35;;
19030;SDS011;9648;51.130;13.978;2023-05-27T08:21:51;11.40;;;3.27;;
19030;SDS011;9648;51.130;13.978;2023-05-27T08:24:18;13.73;;;3.17;;
19030;SDS011;9648;51.130;13.978;2023-05-27T08:26:46;8.75;;;2.72;;
19030;SDS011;9648;51.130;13.978;2023-05-27T08:29:14;11.57;;;3.50;;
19030;SDS011;9648;51.130;13.978;2023-05-27T08:31:41;9.35;;;2.90;;
19030;SDS011;9648;51.130;13.978;2023-05-27T08:34:08;9.43;;;3.30;;
19030;SDS011;9648;51.130;13.978;2023-05-27T08:36:38;11.88;;;3.50;;
19030;SDS011;9648;51.130;13.978;2023-05-27T08:39:04;10.07;;;3.20;;
19030;SDS011;9648;51.130;13.978;2023-05-27T08:41:31;11.98;;;3.42;;
19030;SDS011;9648;51.130;13.978;2023-05-27T08:43:58;10.85;;;3.25;;
19030;SDS011;9648;51.130;13.978;2023-05-27T08:46:27;12.15;;;3.28;;
19030;SDS011;9648;51.130;13.978;2023-05-27T08:48:53;13.10;;;3.38;;
19030;SDS011;9648;51.130;13.978;2023-05-27T08:51:21;9.83;;;3.13;;
19030;SDS011;9648;51.130;13.978;2023-05-27T08:53:49;12.05;;;3.78;;
19030;SDS011;9648;51.130;13.978;2023-05-27T08:56:17;10.43;;;3.20;;
19030;SDS011;9648;51.130;13.978;2023-05-27T08:58:46;11.20;;;3.53;;
19030;SDS011;9648;51.130;13.978;2023-05-27T09:01:14;10.30;;;3.20;;
19030;SDS011;9648;51.130;13.978;2023-05-27T09:03:46;12.88;;;3.72;;
19030;SDS011;9648;51.130;13.978;2023-05-27T09:06:13;12.27;;;3.10;;
19030;SDS011;9648;51.130;13.978;2023-05-27T09:08:40;10.98;;;3.30;;
19030;SDS011;9648;51.130;13.978;2023-05-27T09:11:06;10.93;;;3.10;;
19030;SDS011;9648;51.130;13.978;2023-05-27T09:13:33;9.45;;;3.28;;
19030;SDS011;9648;51.130;13.978;2023-05-27T09:16:00;9.82;;;3.47;;
19030;SDS011;9648;51.130;13.978;2023-05-27T09:18:31;13.05;;;3.60;;
19030;SDS011;9648;51.130;13.978;2023-05-27T09:21:01;9.75;;;3.08;;
19030;SDS011;9648;51.130;13.978;2023-05-27T09:23:28;11.73;;;3.33;;
19030;SDS011;9648;51.130;13.978;2023-05-27T09:25:54;11.70;;;3.20;;
19030;SDS011;9648;51.130;13.978;2023-05-27T09:28:25;12.52;;;3.60;;
19030;SDS011;9648;51.130;13.978;2023-05-27T09:30:58;10.18;;;2.90;;
19030;SDS011;9648;51.130;13.978;2023-05-27T09:33:26;11.02;;;3.08;;
19030;SDS011;9648;51.130;13.978;2023-05-27T09:35:53;11.93;;;3.33;;
19030;SDS011;9648;51.130;13.978;2023-05-27T09:38:21;9.75;;;3.53;;
19030;SDS011;9648;51.130;13.978;2023-05-27T09:40:48;13.13;;;3.60;;
19030;SDS011;9648;51.130;13.978;2023-05-27T09:43:18;8.93;;;2.95;;
19030;SDS011;9648;51.130;13.978;2023-05-27T09:45:45;14.43;;;3.38;;
19030;SDS011;9648;51.130;13.978;2023-05-27T09:48:12;8.82;;;3.40;;
19030;SDS011;9648;51.130;13.978;2023-05-27T09:50:41;11.30;;;3.30;;
19030;SDS011;9648;51.130;13.978;2023-05-27T09:53:08;10.98;;;3.00;;
19030;SDS011;9648;51.130;13.978;2023-05-27T09:55:37;11.07;;;3.03;;
19030;SDS011;9648;51.130;13.978;2023-05-27T09:58:05;8.02;;;2.90;;
19030;SDS011;9648;51.130;13.978;2023-05-27T10:00:33;10.40;;;2.80;;
19030;SDS011;9648;51.130;13.978;2023-05-27T10:03:02;10.65;;;3.40;;
19030;SDS011;9648;51.130;13.978;2023-05-27T10:05:31;7.93;;;2.63;;
19030;SDS011;9648;51.130;13.978;2023-05-27T10:07:58;12.37;;;3.30;;
19030;SDS011;9648;51.130;13.978;2023-05-27T10:10:26;8.25;;;3.15;;
19030;SDS011;9648;51.130;13.978;2023-05-27T10:12:55;9.90;;;3.00;;
19030;SDS011;9648;51.130;13.978;2023-05-27T10:15:23;8.85;;;3.45;;
19030;SDS011;9648;51.130;13.978;2023-05-27T10:17:53;9.07;;;3.10;;
19030;SDS011;9648;51.130;13.978;2023-05-27T10:20:28;8.15;;;3.00;;
19030;SDS011;9648;51.130;13.978;2023-05-27T10:22:57;10.90;;;3.20;;
19030;SDS011;9648;51.130;13.978;2023-05-27T10:25:35;8.30;;;2.72;;
19030;SDS011;9648;51.130;13.978;2023-05-27T10:28:04;10.52;;;3.33;;
19030;SDS011;9648;51.130;13.978;2023-05-27T10:30:30;10.77;;;2.75;;
19030;SDS011;9648;51.130;13.978;2023-05-27T10:33:09;9.48;;;3.05;;
19030;SDS011;9648;51.130;13.978;2023-05-27T10:35:38;9.13;;;2.87;;
19030;SDS011;9648;51.130;13.978;2023-05-27T10:38:13;8.23;;;2.83;;
19030;SDS011;9648;51.130;13.978;2023-05-27T10:40:41;9.07;;;3.17;;
19030;SDS011;9648;51.130;13.978;2023-05-27T10:43:15;11.35;;;3.00;;
19030;SDS011;9648;51.130;13.978;2023-05-27T10:45:46;10.68;;;3.00;;
19030;SDS011;9648;51.130;13.978;2023-05-27T10:48:17;9.88;;;3.10;;
19030;SDS011;9648;51.130;13.978;2023-05-27T10:50:50;10.05;;;3.05;;
19030;SDS011;9648;51.130;13.978;2023-05-27T10:53:20;6.80;;;2.67;;
19030;SDS011;9648;51.130;13.978;2023-05-27T10:55:47;8.20;;;2.83;;
19030;SDS011;9648;51.130;13.978;2023-05-27T10:58:18;8.32;;;2.42;;
19030;SDS011;9648;51.130;13.978;2023-05-27T11:00:50;7.75;;;2.42;;
19030;SDS011;9648;51.130;13.978;2023-05-27T11:03:18;11.10;;;2.85;;
19030;SDS011;9648;51.130;13.978;2023-05-27T11:05:46;7.17;;;2.60;;
19030;SDS011;9648;51.130;13.978;2023-05-27T11:08:13;8.63;;;2.53;;
19030;SDS011;9648;51.130;13.978;2023-05-27T11:10:40;9.63;;;3.03;;
19030;SDS011;9648;51.130;13.978;2023-05-27T11:13:07;9.15;;;2.67;;
19030;SDS011;9648;51.130;13.978;2023-05-27T11:15:35;7.50;;;2.55;;
19030;SDS011;9648;51.130;13.978;2023-05-27T11:18:07;9.67;;;2.83;;
19030;SDS011;9648;51.130;13.978;2023-05-27T11:20:34;5.63;;;2.13;;
19030;SDS011;9648;51.130;13.978;2023-05-27T11:23:01;5.25;;;2.30;;
19030;SDS011;9648;51.130;13.978;2023-05-27T11:25:29;8.57;;;2.50;;
19030;SDS011;9648;51.130;13.978;2023-05-27T11:28:15;7.20;;;2.40;;
19030;SDS011;9648;51.130;13.978;2023-05-27T11:30:44;9.38;;;2.60;;
19030;SDS011;9648;51.130;13.978;2023-05-27T11:33:11;8.65;;;2.97;;
19030;SDS011;9648;51.130;13.978;2023-05-27T11:35:37;7.60;;;2.40;;
19030;SDS011;9648;51.130;13.978;2023-05-27T11:38:04;6.37;;;2.27;;
19030;SDS011;9648;51.130;13.978;2023-05-27T11:40:34;9.40;;;2.63;;
19030;SDS011;9648;51.130;13.978;2023-05-27T11:43:01;7.90;;;2.45;;
19030;SDS011;9648;51.130;13.978;2023-05-27T11:45:28;7.97;;;2.55;;
19030;SDS011;9648;51.130;13.978;2023-05-27T11:47:57;6.47;;;2.65;;
19030;SDS011;9648;51.130;13.978;2023-05-27T11:50:27;7.28;;;2.40;;
19030;SDS011;9648;51.130;13.978;2023-05-27T11:52:54;7.13;;;2.40;;
19030;SDS011;9648;51.130;13.978;2023-05-27T11:55:22;7.65;;;2.38;;
19030;SDS011;9648;51.130;13.978;2023-05-27T11:57:49;8.15;;;2.63;;
19030;SDS011;9648;51.130;13.978;2023-05-27T12:00:16;6.75;;;2.55;;
19030;SDS011;9648;51.130;13.978;2023-05-27T12:02:44;6.43;;;2.60;;
19030;SDS011;9648;51.130;13.978;2023-05-27T12:05:12;6.60;;;2.38;;
19030;SDS011;9648;51.130;13.978;2023-05-27T12:07:39;6.77;;;2.40;;
19030;SDS011;9648;51.130;13.978;2023-05-27T12:10:08;7.10;;;2.60;;
19030;SDS011;9648;51.130;13.978;2023-05-27T12:12:37;7.32;;;2.30;;
19030;SDS011;9648;51.130;13.978;2023-05-27T12:15:07;5.85;;;2.50;;
19030;SDS011;9648;51.130;13.978;2023-05-27T12:17:34;6.80;;;2.30;;
19030;SDS011;9648;51.130;13.978;2023-05-27T12:20:01;6.53;;;2.60;;
19030;SDS011;9648;51.130;13.978;2023-05-27T12:22:32;8.05;;;2.55;;
19030;SDS011;9648;51.130;13.978;2023-05-27T12:24:59;6.90;;;2.10;;
19030;SDS011;9648;51.130;13.978;2023-05-27T12:27:28;6.65;;;2.55;;
19030;SDS011;9648;51.130;13.978;2023-05-27T12:29:55;5.60;;;2.40;;
19030;SDS011;9648;51.130;13.978;2023-05-27T12:32:22;7.70;;;2.80;;
19030;SDS011;9648;51.130;13.978;2023-05-27T12:34:51;6.10;;;2.22;;
19030;SDS011;9648;51.130;13.978;2023-05-27T12:37:18;6.67;;;2.67;;
19030;SDS011;9648;51.130;13.978;2023-05-27T12:39:46;7.05;;;2.40;;
19030;SDS011;9648;51.130;13.978;2023-05-27T12:42:13;7.82;;;2.60;;
19030;SDS011;9648;51.130;13.978;2023-05-27T12:44:43;6.75;;;2.47;;
19030;SDS011;9648;51.130;13.978;2023-05-27T12:47:09;6.70;;;2.27;;
19030;SDS011;9648;51.130;13.978;2023-05-27T12:49:36;6.97;;;2.40;;
19030;SDS011;9648;51.130;13.978;2023-05-27T12:52:03;6.13;;;2.42;;
19030;SDS011;9648;51.130;13.978;2023-05-27T12:54:30;6.72;;;2.53;;
19030;SDS011;9648;51.130;13.978;2023-05-27T12:56:58;6.23;;;2.53;;
19030;SDS011;9648;51.130;13.978;2023-05-27T12:59:29;7.60;;;2.80;;
19030;SDS011;9648;51.130;13.978;2023-05-27T13:01:56;7.90;;;2.88;;
19030;SDS011;9648;51.130;13.978;2023-05-27T13:04:23;5.68;;;2.45;;
19030;SDS011;9648;51.130;13.978;2023-05-27T13:06:50;6.50;;;2.57;;
19030;SDS011;9648;51.130;13.978;2023-05-27T13:09:17;6.85;;;2.90;;
19030;SDS011;9648;51.130;13.978;2023-05-27T13:11:44;6.65;;;2.90;;
19030;SDS011;9648;51.130;13.978;2023-05-27T13:14:14;7.37;;;2.47;;
19030;SDS011;9648;51.130;13.978;2023-05-27T13:16:44;8.20;;;2.90;;
19030;SDS011;9648;51.130;13.978;2023-05-27T13:19:10;5.88;;;2.50;;
19030;SDS011;9648;51.130;13.978;2023-05-27T13:21:37;9.02;;;2.55;;
19030;SDS011;9648;51.130;13.978;2023-05-27T13:24:04;7.32;;;2.78;;
19030;SDS011;9648;51.130;13.978;2023-05-27T13:26:31;7.97;;;2.75;;
19030;SDS011;9648;51.130;13.978;2023-05-27T13:28:58;6.68;;;2.60;;
19030;SDS011;9648;51.130;13.978;2023-05-27T13:31:29;7.47;;;2.25;;
19030;SDS011;9648;51.130;13.978;2023-05-27T13:33:56;7.95;;;2.90;;
19030;SDS011;9648;51.130;13.978;2023-05-27T13:36:23;9.90;;;3.00;;
19030;SDS011;9648;51.130;13.978;2023-05-27T13:38:49;5.10;;;2.50;;
19030;SDS011;9648;51.130;13.978;2023-05-27T13:41:16;7.05;;;2.80;;
19030;SDS011;9648;51.130;13.978;2023-05-27T13:43:43;5.30;;;2.33;;
19030;SDS011;9648;51.130;13.978;2023-05-27T13:46:09;7.93;;;2.88;;
19030;SDS011;9648;51.130;13.978;2023-05-27T13:48:37;6.35;;;2.35;;
19030;SDS011;9648;51.130;13.978;2023-05-27T13:51:07;5.35;;;2.55;;
19030;SDS011;9648;51.130;13.978;2023-05-27T13:53:34;6.00;;;2.50;;
19030;SDS011;9648;51.130;13.978;2023-05-27T13:56:01;5.95;;;2.75;;
19030;SDS011;9648;51.130;13.978;2023-05-27T13:58:27;6.97;;;3.00;;
19030;SDS011;9648;51.130;13.978;2023-05-27T14:00:54;5.90;;;2.45;;
19030;SDS011;9648;51.130;13.978;2023-05-27T14:03:21;6.43;;;2.70;;
19030;SDS011;9648;51.130;13.978;2023-05-27T14:05:49;6.57;;;2.92;;
19030;SDS011;9648;51.130;13.978;2023-05-27T14:08:16;6.47;;;2.47;;
19030;SDS011;9648;51.130;13.978;2023-05-27T14:10:43;8.18;;;2.80;;
19030;SDS011;9648;51.130;13.978;2023-05-27T14:13:10;6.97;;;2.90;;
19030;SDS011;9648;51.130;13.978;2023-05-27T14:15:37;6.22;;;2.70;;
19030;SDS011;9648;51.130;13.978;2023-05-27T14:18:04;7.90;;;2.70;;
19030;SDS011;9648;51.130;13.978;2023-05-27T14:20:31;6.22;;;2.60;;
19030;SDS011;9648;51.130;13.978;2023-05-27T14:23:00;6.97;;;2.95;;
19030;SDS011;9648;51.130;13.978;2023-05-27T14:25:29;6.05;;;2.80;;
19030;SDS011;9648;51.130;13.978;2023-05-27T14:27:56;6.75;;;2.80;;
19030;SDS011;9648;51.130;13.978;2023-05-27T14:30:26;8.43;;;2.90;;
19030;SDS011;9648;51.130;13.978;2023-05-27T14:32:53;6.80;;;2.70;;
19030;SDS011;9648;51.130;13.978;2023-05-27T14:35:20;7.82;;;3.20;;
19030;SDS011;9648;51.130;13.978;2023-05-27T14:37:47;7.95;;;2.72;;
19030;SDS011;9648;51.130;13.978;2023-05-27T14:40:18;6.63;;;3.00;;
19030;SDS011;9648;51.130;13.978;2023-05-27T14:42:45;5.47;;;2.50;;